AAL1875 KDFW-KPIT
Flight info
| Callsign | AAL1875 |
|---|---|
| Flight time | N/A |
| Altitude | 37000 |
| Route | ZACHH4 BSKAT DCT LITTR DCT OMDUE DCT OLSIE DCT DACOS DCT VLADY DCT JPU FEWGA7 |
| Aircraft | B737/M-SDE2E3FGHIRWXY/LB1 |
Departure
| Time | 2026-05-05 22:58 |
|---|---|
| Airport | Dallas Fort Worth International Airport (KDFW) |
Arrival
| Time | N/A |
|---|---|
| Airport | Pittsburgh International Airport (KPIT) |
| Time | Latitude | Longitude | Altitude | Speed | Heading |
|---|---|---|---|---|---|
| 2026-05-05 22:51 | 32.90617 | -97.03533 | 586 ft | 0 kts | 249° |
| 2026-05-05 22:52 | 32.90617 | -97.03531 | 586 ft | 0 kts | 249° |
| 2026-05-05 22:52 | 32.90622 | -97.03516 | 586 ft | 3 kts | 249° |
| 2026-05-05 22:52 | 32.90630 | -97.03496 | 586 ft | 3 kts | 212° |
| 2026-05-05 22:53 | 32.90647 | -97.03492 | 586 ft | 1 kts | 158° |
| 2026-05-05 22:53 | 32.90648 | -97.03492 | 586 ft | 0 kts | 158° |
| 2026-05-05 22:54 | 32.90639 | -97.03479 | 586 ft | 12 kts | 116° |
| 2026-05-05 22:55 | 32.90691 | -97.03401 | 586 ft | 18 kts | 0° |
| 2026-05-05 22:55 | 32.90810 | -97.03332 | 585 ft | 22 kts | 32° |
| 2026-05-05 22:55 | 32.90971 | -97.03308 | 581 ft | 25 kts | 8° |
| 2026-05-05 22:55 | 32.91158 | -97.03276 | 579 ft | 29 kts | 1° |
| 2026-05-05 22:56 | 32.91324 | -97.03275 | 580 ft | 23 kts | 359° |
| 2026-05-05 22:56 | 32.91466 | -97.03264 | 576 ft | 16 kts | 19° |
| 2026-05-05 22:56 | 32.91488 | -97.03190 | 577 ft | 15 kts | 89° |
| 2026-05-05 22:56 | 32.91487 | -97.03130 | 575 ft | 4 kts | 90° |
| 2026-05-05 22:57 | 32.91480 | -97.03009 | 577 ft | 13 kts | 114° |
| 2026-05-05 22:57 | 32.91396 | -97.02989 | 576 ft | 13 kts | 182° |
| 2026-05-05 22:57 | 32.91351 | -97.02990 | 577 ft | 17 kts | 179° |
| 2026-05-05 22:57 | 32.90892 | -97.02993 | 575 ft | 113 kts | 180° |
| 2026-05-05 22:58 | 32.89817 | -97.03004 | 611 ft | 190 kts | 180° |
| 2026-05-05 22:58 | 32.88331 | -97.03016 | 1087 ft | 226 kts | 183° |
| 2026-05-05 22:58 | 32.86730 | -97.03012 | 1466 ft | 244 kts | 181° |
| 2026-05-05 22:58 | 32.85005 | -97.02988 | 2404 ft | 246 kts | 176° |
| 2026-05-05 22:59 | 32.83385 | -97.02322 | 3145 ft | 250 kts | 151° |
| 2026-05-05 22:59 | 32.81878 | -97.01381 | 4009 ft | 243 kts | 156° |
| 2026-05-05 22:59 | 32.80346 | -97.00561 | 4828 ft | 242 kts | 159° |
| 2026-05-05 22:59 | 32.78856 | -96.99562 | 5480 ft | 251 kts | 141° |
| 2026-05-05 23:00 | 32.77020 | -96.95873 | 6773 ft | 268 kts | 114° |
| 2026-05-05 23:00 | 32.76442 | -96.93732 | 7373 ft | 277 kts | 101° |
| 2026-05-05 23:00 | 32.76481 | -96.91405 | 7995 ft | 287 kts | 85° |
| 2026-05-05 23:01 | 32.76662 | -96.88961 | 8446 ft | 308 kts | 88° |
| 2026-05-05 23:01 | 32.76769 | -96.86398 | 9081 ft | 319 kts | 89° |
| 2026-05-05 23:01 | 32.76898 | -96.83728 | 9830 ft | 327 kts | 82° |
| 2026-05-05 23:01 | 32.77656 | -96.81175 | 10512 ft | 336 kts | 59° |
| 2026-05-05 23:02 | 32.78862 | -96.78692 | 10882 ft | 356 kts | 59° |
| 2026-05-05 23:02 | 32.80107 | -96.76082 | 11473 ft | 367 kts | 59° |
| 2026-05-05 23:02 | 32.81366 | -96.73410 | 12182 ft | 373 kts | 60° |
| 2026-05-05 23:02 | 32.82636 | -96.70690 | 12909 ft | 379 kts | 60° |
| 2026-05-05 23:03 | 32.83925 | -96.67910 | 13590 ft | 387 kts | 60° |
| 2026-05-05 23:03 | 32.85215 | -96.65120 | 14219 ft | 393 kts | 60° |
| 2026-05-05 23:03 | 32.86535 | -96.62255 | 14909 ft | 397 kts | 60° |
| 2026-05-05 23:03 | 32.87872 | -96.59350 | 15604 ft | 402 kts | 60° |
| 2026-05-05 23:04 | 32.89222 | -96.56415 | 16285 ft | 407 kts | 60° |
| 2026-05-05 23:04 | 32.90589 | -96.53439 | 16963 ft | 412 kts | 60° |
| 2026-05-05 23:04 | 32.91973 | -96.50422 | 17611 ft | 417 kts | 60° |
| 2026-05-05 23:04 | 32.93377 | -96.47362 | 18143 ft | 425 kts | 60° |
| 2026-05-05 23:05 | 32.94805 | -96.44247 | 18735 ft | 429 kts | 59° |
| 2026-05-05 23:05 | 32.96236 | -96.41121 | 19378 ft | 431 kts | 59° |
| 2026-05-05 23:05 | 32.97189 | -96.39040 | 19759 ft | 435 kts | 59° |
| 2026-05-05 23:05 | 32.98646 | -96.35855 | 20299 ft | 440 kts | 58° |
| 2026-05-05 23:06 | 33.00111 | -96.32633 | 20878 ft | 445 kts | 59° |
| 2026-05-05 23:06 | 33.01448 | -96.29269 | 21393 ft | 453 kts | 64° |
| 2026-05-05 23:06 | 33.02669 | -96.25780 | 21926 ft | 458 kts | 65° |
| 2026-05-05 23:06 | 33.03859 | -96.22240 | 22462 ft | 463 kts | 65° |
| 2026-05-05 23:07 | 33.05067 | -96.18657 | 22989 ft | 467 kts | 64° |
| 2026-05-05 23:07 | 33.06302 | -96.15054 | 23468 ft | 472 kts | 64° |
| 2026-05-05 23:07 | 33.07550 | -96.11469 | 23890 ft | 476 kts | 64° |
| 2026-05-05 23:07 | 33.08833 | -96.07817 | 24320 ft | 480 kts | 63° |
| 2026-05-05 23:08 | 33.10132 | -96.04137 | 24781 ft | 482 kts | 63° |
| 2026-05-05 23:08 | 33.11441 | -96.00429 | 25209 ft | 486 kts | 63° |
| 2026-05-05 23:08 | 33.12760 | -95.96688 | 25622 ft | 490 kts | 63° |
| 2026-05-05 23:08 | 33.14086 | -95.92917 | 26026 ft | 494 kts | 63° |
| 2026-05-05 23:09 | 33.15420 | -95.89115 | 26424 ft | 498 kts | 63° |
| 2026-05-05 23:09 | 33.16765 | -95.85278 | 26839 ft | 502 kts | 63° |
| 2026-05-05 23:09 | 33.18116 | -95.81421 | 27233 ft | 506 kts | 64° |
| 2026-05-05 23:09 | 33.19457 | -95.77581 | 27615 ft | 509 kts | 64° |
| 2026-05-05 23:10 | 33.20826 | -95.73652 | 27982 ft | 513 kts | 64° |
| 2026-05-05 23:10 | 33.22200 | -95.69702 | 28367 ft | 517 kts | 64° |
| 2026-05-05 23:10 | 33.23583 | -95.65722 | 28755 ft | 520 kts | 64° |
| 2026-05-05 23:10 | 33.24971 | -95.61720 | 29152 ft | 523 kts | 64° |
| 2026-05-05 23:11 | 33.26368 | -95.57689 | 29491 ft | 527 kts | 64° |
| 2026-05-05 23:11 | 33.27775 | -95.53623 | 29818 ft | 531 kts | 64° |
| 2026-05-05 23:11 | 33.29191 | -95.49528 | 30100 ft | 534 kts | 64° |
| 2026-05-05 23:11 | 33.30613 | -95.45411 | 30386 ft | 537 kts | 64° |
| 2026-05-05 23:12 | 33.32022 | -95.41322 | 30682 ft | 539 kts | 64° |
| 2026-05-05 23:12 | 33.33451 | -95.37173 | 30979 ft | 541 kts | 64° |
| 2026-05-05 23:12 | 33.34888 | -95.32991 | 31240 ft | 544 kts | 63° |
| 2026-05-05 23:12 | 33.36330 | -95.28794 | 31559 ft | 545 kts | 63° |
| 2026-05-05 23:13 | 33.37771 | -95.24592 | 31856 ft | 547 kts | 63° |
| 2026-05-05 23:13 | 33.39217 | -95.20370 | 32108 ft | 549 kts | 63° |
| 2026-05-05 23:13 | 33.40667 | -95.16135 | 32340 ft | 552 kts | 63° |
| 2026-05-05 23:13 | 33.42126 | -95.11866 | 32587 ft | 554 kts | 63° |
| 2026-05-05 23:14 | 33.43585 | -95.07590 | 32849 ft | 556 kts | 63° |
| 2026-05-05 23:14 | 33.45028 | -95.03354 | 33181 ft | 556 kts | 63° |
| 2026-05-05 23:14 | 33.46484 | -94.99069 | 33564 ft | 554 kts | 63° |
| 2026-05-05 23:14 | 33.47936 | -94.94792 | 33901 ft | 553 kts | 63° |
| 2026-05-05 23:15 | 33.49382 | -94.90529 | 34228 ft | 552 kts | 63° |
| 2026-05-05 23:15 | 33.50828 | -94.86262 | 34548 ft | 551 kts | 63° |
| 2026-05-05 23:15 | 33.52268 | -94.82008 | 34819 ft | 551 kts | 63° |
| 2026-05-05 23:15 | 33.53709 | -94.77746 | 35076 ft | 551 kts | 63° |
| 2026-05-05 23:16 | 33.55151 | -94.73478 | 35357 ft | 551 kts | 63° |
| 2026-05-05 23:16 | 33.56585 | -94.69223 | 35647 ft | 550 kts | 63° |
| 2026-05-05 23:16 | 33.58020 | -94.64961 | 35757 ft | 554 kts | 63° |
| 2026-05-05 23:16 | 33.59449 | -94.60717 | 35742 ft | 557 kts | 63° |
| 2026-05-05 23:17 | 33.62339 | -94.52100 | 35740 ft | 554 kts | 63° |
| 2026-05-05 23:17 | 33.65187 | -94.43575 | 35734 ft | 548 kts | 63° |
| 2026-05-05 23:18 | 33.68025 | -94.35075 | 35754 ft | 548 kts | 63° |
| 2026-05-05 23:18 | 33.70840 | -94.26622 | 35747 ft | 549 kts | 63° |
| 2026-05-05 23:19 | 33.74132 | -94.18412 | 35739 ft | 541 kts | 52° |
| 2026-05-05 23:19 | 33.78023 | -94.10706 | 35736 ft | 539 kts | 51° |
| 2026-05-05 23:20 | 33.81909 | -94.02974 | 35739 ft | 540 kts | 52° |
| 2026-05-05 23:20 | 33.85682 | -93.95142 | 35740 ft | 541 kts | 53° |
| 2026-05-05 23:21 | 33.89410 | -93.87270 | 35780 ft | 541 kts | 53° |
| 2026-05-05 23:21 | 33.93122 | -93.79433 | 35736 ft | 542 kts | 53° |
| 2026-05-05 23:22 | 33.96865 | -93.71532 | 35737 ft | 542 kts | 53° |
| 2026-05-05 23:22 | 34.00598 | -93.63638 | 35736 ft | 541 kts | 53° |
| 2026-05-05 23:23 | 34.04321 | -93.55747 | 35737 ft | 541 kts | 53° |
| 2026-05-05 23:23 | 34.08028 | -93.47861 | 35743 ft | 540 kts | 53° |
| 2026-05-05 23:24 | 34.11702 | -93.40014 | 35755 ft | 539 kts | 53° |
| 2026-05-05 23:24 | 34.15391 | -93.32117 | 35755 ft | 539 kts | 53° |
| 2026-05-05 23:25 | 34.19072 | -93.24224 | 35776 ft | 540 kts | 53° |
| 2026-05-05 23:25 | 34.22761 | -93.16298 | 35774 ft | 541 kts | 53° |
| 2026-05-05 23:26 | 34.26444 | -93.08365 | 35767 ft | 541 kts | 53° |
| 2026-05-05 23:26 | 34.30101 | -93.00466 | 35771 ft | 542 kts | 53° |
| 2026-05-05 23:27 | 34.33787 | -92.92490 | 35760 ft | 542 kts | 53° |
| 2026-05-05 23:27 | 34.37465 | -92.84511 | 35770 ft | 542 kts | 53° |
| 2026-05-05 23:28 | 34.41138 | -92.76527 | 35767 ft | 542 kts | 53° |
| 2026-05-05 23:28 | 34.44780 | -92.68590 | 35809 ft | 542 kts | 53° |
| 2026-05-05 23:29 | 34.48441 | -92.60596 | 35792 ft | 542 kts | 53° |
| 2026-05-05 23:29 | 34.52091 | -92.52605 | 35788 ft | 541 kts | 53° |
| 2026-05-05 23:30 | 34.55732 | -92.44615 | 35783 ft | 540 kts | 53° |
| 2026-05-05 23:30 | 34.59360 | -92.36635 | 35781 ft | 539 kts | 53° |
| 2026-05-05 23:31 | 34.62953 | -92.28715 | 35796 ft | 538 kts | 53° |
| 2026-05-05 23:31 | 34.66562 | -92.20743 | 35789 ft | 537 kts | 53° |
| 2026-05-05 23:32 | 34.70193 | -92.12819 | 35786 ft | 535 kts | 52° |
| 2026-05-05 23:32 | 34.73916 | -92.04981 | 35790 ft | 534 kts | 51° |
| 2026-05-05 23:33 | 34.77617 | -91.97208 | 35794 ft | 534 kts | 51° |
| 2026-05-05 23:33 | 34.81320 | -91.89368 | 35796 ft | 534 kts | 51° |
| 2026-05-05 23:34 | 34.85008 | -91.81514 | 35792 ft | 534 kts | 52° |
| 2026-05-05 23:34 | 34.88691 | -91.73645 | 35799 ft | 534 kts | 52° |
| 2026-05-05 23:35 | 34.92342 | -91.65829 | 35791 ft | 534 kts | 52° |
| 2026-05-05 23:35 | 34.96012 | -91.57957 | 35789 ft | 534 kts | 52° |
| 2026-05-05 23:36 | 34.99678 | -91.50078 | 35828 ft | 534 kts | 52° |
| 2026-05-05 23:36 | 35.03343 | -91.42183 | 35794 ft | 534 kts | 52° |
| 2026-05-05 23:37 | 35.06976 | -91.34335 | 35787 ft | 533 kts | 52° |
| 2026-05-05 23:37 | 35.10622 | -91.26443 | 35795 ft | 533 kts | 52° |
| 2026-05-05 23:38 | 35.14258 | -91.18554 | 35795 ft | 532 kts | 52° |
| 2026-05-05 23:38 | 35.17882 | -91.10673 | 35796 ft | 531 kts | 52° |
| 2026-05-05 23:39 | 35.21499 | -91.02789 | 35790 ft | 531 kts | 52° |
| 2026-05-05 23:39 | 35.25083 | -90.94962 | 35840 ft | 530 kts | 52° |
| 2026-05-05 23:40 | 35.28684 | -90.87079 | 35809 ft | 530 kts | 52° |
| 2026-05-05 23:40 | 35.32274 | -90.79200 | 35804 ft | 529 kts | 52° |
| 2026-05-05 23:41 | 35.35857 | -90.71319 | 35810 ft | 528 kts | 52° |
| 2026-05-05 23:41 | 35.39427 | -90.63448 | 35800 ft | 528 kts | 52° |
| 2026-05-05 23:42 | 35.42965 | -90.55628 | 35801 ft | 527 kts | 52° |
| 2026-05-05 23:42 | 35.46516 | -90.47765 | 35794 ft | 526 kts | 52° |
| 2026-05-05 23:43 | 35.50055 | -90.39908 | 35802 ft | 526 kts | 52° |
| 2026-05-05 23:43 | 35.53596 | -90.32032 | 35800 ft | 526 kts | 52° |
| 2026-05-05 23:44 | 35.57103 | -90.24209 | 35809 ft | 526 kts | 52° |
| 2026-05-05 23:44 | 35.60633 | -90.16317 | 35803 ft | 526 kts | 52° |
| 2026-05-05 23:45 | 35.64149 | -90.08437 | 35808 ft | 525 kts | 52° |
| 2026-05-05 23:45 | 35.67662 | -90.00548 | 35812 ft | 525 kts | 52° |
| 2026-05-05 23:46 | 35.71164 | -89.92662 | 35813 ft | 525 kts | 52° |
| 2026-05-05 23:46 | 35.74667 | -89.84759 | 35807 ft | 525 kts | 52° |
| 2026-05-05 23:47 | 35.78135 | -89.76915 | 35811 ft | 525 kts | 52° |
| 2026-05-05 23:47 | 35.81621 | -89.69010 | 35819 ft | 525 kts | 52° |
| 2026-05-05 23:48 | 35.85104 | -89.61096 | 35811 ft | 525 kts | 52° |
| 2026-05-05 23:48 | 35.88558 | -89.53226 | 35823 ft | 524 kts | 53° |
| 2026-05-05 23:49 | 35.92028 | -89.45302 | 35814 ft | 525 kts | 53° |
| 2026-05-05 23:49 | 35.95493 | -89.37372 | 35821 ft | 524 kts | 53° |
| 2026-05-05 23:50 | 35.98931 | -89.29484 | 35816 ft | 525 kts | 53° |
| 2026-05-05 23:50 | 36.02381 | -89.21547 | 35829 ft | 524 kts | 53° |
| 2026-05-05 23:51 | 36.05830 | -89.13595 | 35819 ft | 524 kts | 53° |
| 2026-05-05 23:51 | 36.09267 | -89.05653 | 35823 ft | 524 kts | 53° |
| 2026-05-05 23:52 | 36.12698 | -88.97705 | 35818 ft | 523 kts | 53° |
| 2026-05-05 23:52 | 36.15998 | -88.89709 | 35823 ft | 525 kts | 55° |
| 2026-05-05 23:53 | 36.19187 | -88.81554 | 35840 ft | 526 kts | 55° |
| 2026-05-05 23:53 | 36.22366 | -88.73400 | 35829 ft | 525 kts | 55° |
| 2026-05-05 23:54 | 36.25021 | -88.66637 | 35852 ft | 525 kts | 55° |
| 2026-05-05 23:54 | 36.28745 | -88.57174 | 35846 ft | 525 kts | 55° |
| 2026-05-05 23:55 | 36.31943 | -88.49034 | 35843 ft | 525 kts | 55° |
| 2026-05-05 23:55 | 36.34601 | -88.42247 | 35849 ft | 525 kts | 55° |
| 2026-05-05 23:56 | 36.37786 | -88.34093 | 35840 ft | 525 kts | 55° |
| 2026-05-05 23:56 | 36.40964 | -88.25934 | 35842 ft | 525 kts | 55° |
| 2026-05-05 23:57 | 36.44141 | -88.17758 | 35843 ft | 525 kts | 55° |
| 2026-05-05 23:57 | 36.47286 | -88.09642 | 35839 ft | 525 kts | 55° |
| 2026-05-05 23:58 | 36.50451 | -88.01456 | 35849 ft | 525 kts | 56° |
| 2026-05-05 23:58 | 36.53604 | -87.93278 | 35845 ft | 524 kts | 56° |
| 2026-05-05 23:59 | 36.56751 | -87.85095 | 35858 ft | 524 kts | 56° |
| 2026-05-05 23:59 | 36.59895 | -87.76897 | 35864 ft | 524 kts | 56° |
| 2026-05-06 00:00 | 36.63007 | -87.68764 | 35847 ft | 523 kts | 56° |
| 2026-05-06 00:00 | 36.66131 | -87.60576 | 35834 ft | 522 kts | 56° |
| 2026-05-06 00:01 | 36.69243 | -87.52399 | 35837 ft | 521 kts | 56° |
| 2026-05-06 00:01 | 36.72339 | -87.44241 | 35865 ft | 520 kts | 56° |
| 2026-05-06 00:02 | 36.75424 | -87.36097 | 35857 ft | 519 kts | 56° |
| 2026-05-06 00:02 | 36.78485 | -87.27992 | 35842 ft | 519 kts | 56° |
| 2026-05-06 00:03 | 36.81559 | -87.19831 | 35850 ft | 518 kts | 56° |
| 2026-05-06 00:03 | 36.84621 | -87.11682 | 35846 ft | 518 kts | 56° |
| 2026-05-06 00:04 | 36.87674 | -87.03533 | 35853 ft | 518 kts | 56° |
| 2026-05-06 00:04 | 36.90723 | -86.95377 | 35840 ft | 518 kts | 56° |
| 2026-05-06 00:05 | 36.95264 | -86.83188 | 35870 ft | 518 kts | 57° |
| 2026-05-06 00:06 | 36.98302 | -86.75004 | 35862 ft | 518 kts | 57° |
| 2026-05-06 00:06 | 37.01333 | -86.66818 | 35863 ft | 518 kts | 57° |
| 2026-05-06 00:07 | 37.04361 | -86.58619 | 35873 ft | 519 kts | 57° |
| 2026-05-06 00:07 | 37.07366 | -86.50459 | 35878 ft | 519 kts | 57° |
| 2026-05-06 00:08 | 37.10382 | -86.42248 | 35873 ft | 519 kts | 57° |
| 2026-05-06 00:08 | 37.13395 | -86.34023 | 35865 ft | 518 kts | 57° |
| 2026-05-06 00:09 | 37.16399 | -86.25801 | 35857 ft | 518 kts | 57° |
| 2026-05-06 00:09 | 37.19375 | -86.17634 | 35856 ft | 518 kts | 57° |
| 2026-05-06 00:10 | 37.22365 | -86.09407 | 35860 ft | 518 kts | 57° |
| 2026-05-06 00:10 | 37.25886 | -86.01710 | 35860 ft | 501 kts | 45° |
| 2026-05-06 00:11 | 37.29898 | -85.94570 | 35851 ft | 499 kts | 44° |
| 2026-05-06 00:11 | 37.33890 | -85.87429 | 35842 ft | 500 kts | 45° |
| 2026-05-06 00:12 | 37.37831 | -85.80223 | 35828 ft | 500 kts | 45° |
| 2026-05-06 00:12 | 37.41716 | -85.73037 | 35847 ft | 500 kts | 46° |
| 2026-05-06 00:13 | 37.45631 | -85.65773 | 35842 ft | 501 kts | 46° |
| 2026-05-06 00:13 | 37.49544 | -85.58503 | 35836 ft | 502 kts | 46° |
| 2026-05-06 00:14 | 37.53463 | -85.51211 | 35832 ft | 503 kts | 46° |
| 2026-05-06 00:14 | 37.57361 | -85.43943 | 35825 ft | 503 kts | 46° |
| 2026-05-06 00:15 | 37.61281 | -85.36616 | 35836 ft | 504 kts | 46° |
| 2026-05-06 00:15 | 37.65202 | -85.29270 | 35864 ft | 504 kts | 46° |
| 2026-05-06 00:16 | 37.69117 | -85.21922 | 35848 ft | 504 kts | 46° |
| 2026-05-06 00:16 | 37.73001 | -85.14613 | 35847 ft | 504 kts | 46° |
| 2026-05-06 00:17 | 37.76907 | -85.07248 | 35855 ft | 504 kts | 46° |
| 2026-05-06 00:17 | 37.80812 | -84.99869 | 35857 ft | 504 kts | 46° |
| 2026-05-06 00:18 | 37.84706 | -84.92493 | 35879 ft | 504 kts | 46° |
| 2026-05-06 00:18 | 37.88572 | -84.85155 | 35861 ft | 504 kts | 46° |
| 2026-05-06 00:19 | 37.92462 | -84.77753 | 35857 ft | 504 kts | 46° |
| 2026-05-06 00:19 | 37.96322 | -84.70395 | 35848 ft | 504 kts | 46° |
| 2026-05-06 00:20 | 38.00193 | -84.62996 | 35873 ft | 503 kts | 46° |
| 2026-05-06 00:20 | 38.04064 | -84.55581 | 35860 ft | 503 kts | 46° |
| 2026-05-06 00:21 | 38.07920 | -84.48177 | 35871 ft | 502 kts | 46° |